createdAt,value
2023-05-21T00:01:05.922Z,10.82
2023-05-21T00:03:53.382Z,12.20
2023-05-21T00:06:40.525Z,10.38
2023-05-21T00:09:27.388Z,11.23
2023-05-21T00:12:14.244Z,11.03
2023-05-21T00:15:01.775Z,11.57
2023-05-21T00:17:48.728Z,12.07
2023-05-21T00:20:35.702Z,10.73
2023-05-21T00:23:22.660Z,11.45
2023-05-21T00:26:09.814Z,12.07
2023-05-21T00:28:56.635Z,11.60
2023-05-21T00:31:43.504Z,11.60
2023-05-21T00:34:30.533Z,12.10
2023-05-21T00:37:17.496Z,11.85
2023-05-21T00:40:07.130Z,13.20
2023-05-21T00:42:57.239Z,11.30
2023-05-21T00:45:48.722Z,11.77
2023-05-21T00:48:35.772Z,12.68
2023-05-21T00:51:22.737Z,11.83
2023-05-21T00:54:10.095Z,12.43
2023-05-21T00:56:58.054Z,11.93
2023-05-21T00:59:45.015Z,11.43
2023-05-21T01:02:34.858Z,13.03
2023-05-21T01:05:22.440Z,12.45
2023-05-21T01:08:10.315Z,11.40
2023-05-21T01:10:58.600Z,11.38
2023-05-21T01:13:47.424Z,12.18
2023-05-21T01:16:36.341Z,11.60
2023-05-21T01:19:24.609Z,10.88
2023-05-21T01:22:14.252Z,14.88
2023-05-21T01:25:02.917Z,11.77
2023-05-21T01:27:50.502Z,13.07
2023-05-21T01:30:39.710Z,12.07
2023-05-21T01:33:32.750Z,12.48
2023-05-21T01:36:26.905Z,12.18
2023-05-21T01:39:22.544Z,11.93
2023-05-21T01:42:11.235Z,12.00
2023-05-21T01:45:01.466Z,12.68
2023-05-21T01:47:51.818Z,13.48
2023-05-21T01:50:40.628Z,12.68
2023-05-21T01:53:27.763Z,12.57
2023-05-21T01:56:15.952Z,14.73
2023-05-21T01:59:03.094Z,13.15
2023-05-21T02:01:50.075Z,12.93
2023-05-21T02:04:37.421Z,12.40
2023-05-21T02:07:24.662Z,11.68
2023-05-21T02:10:12.354Z,13.70
2023-05-21T02:12:59.382Z,12.60
2023-05-21T02:15:47.271Z,14.50
2023-05-21T02:18:34.249Z,12.50
2023-05-21T02:21:21.169Z,13.10
2023-05-21T02:24:07.995Z,13.13
2023-05-21T02:26:54.860Z,12.82
2023-05-21T02:29:41.689Z,13.37
2023-05-21T02:32:28.536Z,14.10
2023-05-21T02:35:15.618Z,13.50
2023-05-21T02:38:03.181Z,13.73
2023-05-21T02:40:53.537Z,14.18
2023-05-21T02:46:44.965Z,13.23
2023-05-21T02:49:31.754Z,14.20
2023-05-21T02:52:20.255Z,13.53
2023-05-21T02:55:07.779Z,13.98
2023-05-21T02:57:54.621Z,14.52
2023-05-21T03:00:41.838Z,13.93
2023-05-21T03:03:28.812Z,15.10
2023-05-21T03:06:16.413Z,14.55
2023-05-21T03:09:05.786Z,13.63
2023-05-21T03:11:52.706Z,14.35
2023-05-21T03:14:39.640Z,13.90
2023-05-21T03:17:26.508Z,16.00
2023-05-21T03:20:16.589Z,17.00
2023-05-21T03:23:04.416Z,14.95
2023-05-21T03:28:38.116Z,13.80
2023-05-21T03:31:26.635Z,14.67
2023-05-21T03:34:13.575Z,14.70
2023-05-21T03:37:00.721Z,14.10
2023-05-21T03:39:47.568Z,16.55
2023-05-21T03:42:34.441Z,14.13
2023-05-21T03:45:21.453Z,14.63
2023-05-21T03:48:08.375Z,15.43
2023-05-21T03:50:55.620Z,16.50
2023-05-21T03:53:42.568Z,15.60
2023-05-21T03:56:29.535Z,13.82
2023-05-21T03:59:16.482Z,15.73
2023-05-21T04:02:03.620Z,15.65
2023-05-21T04:04:51.831Z,15.85
2023-05-21T04:07:38.932Z,14.95
2023-05-21T04:10:26.126Z,15.63
2023-05-21T04:13:13.175Z,15.32
2023-05-21T04:16:00.165Z,15.05
2023-05-21T04:18:47.348Z,14.80
2023-05-21T04:21:34.506Z,16.20
2023-05-21T04:24:22.592Z,16.35
2023-05-21T04:27:10.671Z,13.70
2023-05-21T04:29:58.124Z,15.48
2023-05-21T04:32:46.010Z,14.57
2023-05-21T04:35:33.211Z,15.88
2023-05-21T04:38:20.223Z,16.23
2023-05-21T04:41:07.094Z,16.75
2023-05-21T04:43:55.375Z,14.57
2023-05-21T04:46:42.795Z,14.48
2023-05-21T04:49:30.116Z,15.52
2023-05-21T04:52:17.470Z,16.77
2023-05-21T04:55:04.952Z,16.45
2023-05-21T04:57:52.789Z,15.07
2023-05-21T05:00:42.293Z,15.60
2023-05-21T05:03:30.202Z,15.10
2023-05-21T05:09:04.764Z,14.85
2023-05-21T05:11:51.872Z,15.35
2023-05-21T05:14:38.732Z,15.07
2023-05-21T05:17:25.734Z,15.77
2023-05-21T05:20:12.665Z,15.95
2023-05-21T05:22:59.498Z,16.13
2023-05-21T05:25:46.545Z,15.83
2023-05-21T05:28:33.425Z,16.38
2023-05-21T05:31:20.405Z,16.23
2023-05-21T05:34:07.330Z,15.20
2023-05-21T05:36:54.200Z,17.00
2023-05-21T05:39:41.048Z,18.33
2023-05-21T05:42:27.929Z,16.97
2023-05-21T05:45:14.970Z,16.80
2023-05-21T05:48:01.894Z,17.75
2023-05-21T05:50:48.875Z,15.97
2023-05-21T05:53:35.822Z,16.48
2023-05-21T05:56:22.732Z,16.27
2023-05-21T05:59:09.610Z,16.45
2023-05-21T06:01:56.541Z,16.43
2023-05-21T06:04:43.713Z,15.47
2023-05-21T06:07:30.615Z,15.32
2023-05-21T06:10:17.698Z,14.70
2023-05-21T06:13:04.691Z,16.85
2023-05-21T06:15:53.195Z,18.67
2023-05-21T06:18:40.181Z,16.85
2023-05-21T06:21:27.053Z,15.87
2023-05-21T06:24:13.928Z,15.47
2023-05-21T06:27:00.913Z,15.57
2023-05-21T06:29:47.816Z,15.18
2023-05-21T06:32:34.742Z,17.23
2023-05-21T06:35:21.997Z,17.02
2023-05-21T06:38:08.921Z,15.15
2023-05-21T06:40:55.761Z,16.17
2023-05-21T06:43:42.646Z,15.70
2023-05-21T06:46:29.732Z,15.80
2023-05-21T06:49:16.659Z,16.05
2023-05-21T06:52:03.570Z,15.77
2023-05-21T06:54:50.411Z,14.10
2023-05-21T06:57:38.267Z,14.80
2023-05-21T07:00:25.460Z,14.23
2023-05-21T07:03:12.459Z,15.80
2023-05-21T07:05:59.544Z,13.48
2023-05-21T07:08:48.118Z,13.93
2023-05-21T07:11:35.036Z,14.48
2023-05-21T07:14:21.981Z,14.60
2023-05-21T07:17:08.839Z,14.32
2023-05-21T07:19:56.098Z,13.93
2023-05-21T07:22:44.259Z,14.73
2023-05-21T07:25:31.277Z,13.77
2023-05-21T07:28:18.171Z,13.52
2023-05-21T07:31:05.128Z,13.90
2023-05-21T07:33:52.105Z,14.90
2023-05-21T07:36:39.014Z,14.52
2023-05-21T07:39:25.943Z,13.70
2023-05-21T07:42:13.058Z,13.60
2023-05-21T07:45:00.185Z,14.40
2023-05-21T07:47:47.241Z,13.90
2023-05-21T07:50:34.228Z,14.63
2023-05-21T07:53:21.266Z,13.95
2023-05-21T07:56:08.168Z,13.27
2023-05-21T07:58:55.028Z,13.27
2023-05-21T08:01:42.086Z,13.82
2023-05-21T08:04:29.072Z,13.07
2023-05-21T08:07:19.873Z,13.02
2023-05-21T08:10:07.415Z,13.82
2023-05-21T08:12:54.215Z,13.65
2023-05-21T08:15:41.118Z,13.07
2023-05-21T08:18:28.511Z,12.63
2023-05-21T08:21:15.563Z,12.25
2023-05-21T08:24:03.083Z,12.20
2023-05-21T08:26:50.908Z,11.90
2023-05-21T08:29:37.968Z,11.63
2023-05-21T08:32:24.990Z,11.77
2023-05-21T08:35:11.828Z,12.40
2023-05-21T08:37:59.060Z,12.63
2023-05-21T08:40:50.087Z,12.65
2023-05-21T08:43:38.816Z,11.43
2023-05-21T08:46:28.080Z,11.70
2023-05-21T08:49:18.700Z,12.70
2023-05-21T08:52:06.296Z,12.10
2023-05-21T08:54:54.592Z,11.40
2023-05-21T08:57:44.259Z,11.30
2023-05-21T09:00:31.159Z,13.23
2023-05-21T09:03:18.133Z,11.75
2023-05-21T09:06:05.936Z,9.95
2023-05-21T09:11:48.027Z,10.88
2023-05-21T09:17:23.146Z,10.80
2023-05-21T09:20:14.502Z,12.65
2023-05-21T09:23:06.821Z,11.52
2023-05-21T09:25:53.776Z,11.00
2023-05-21T09:28:40.611Z,11.00
2023-05-21T09:31:27.646Z,11.00
2023-05-21T09:34:14.887Z,11.18
2023-05-21T09:37:02.474Z,10.43
2023-05-21T09:39:50.858Z,10.75
2023-05-21T09:42:58.486Z,11.20
2023-05-21T09:45:53.741Z,10.57
2023-05-21T09:48:42.455Z,10.25
2023-05-21T09:51:29.460Z,10.50
2023-05-21T09:54:16.378Z,10.55
2023-05-21T09:57:03.483Z,9.85
2023-05-21T09:59:51.263Z,10.25
2023-05-21T10:02:41.792Z,11.52
2023-05-21T10:05:30.511Z,11.20
2023-05-21T10:08:19.105Z,10.07
2023-05-21T10:11:06.478Z,9.98
2023-05-21T10:14:01.345Z,8.82
2023-05-21T10:16:48.724Z,9.73
2023-05-21T10:19:37.494Z,9.23
2023-05-21T10:25:14.475Z,8.95
2023-05-21T10:28:01.397Z,9.55
2023-05-21T10:30:48.475Z,9.10
2023-05-21T10:33:35.985Z,9.52
2023-05-21T10:39:13.317Z,8.60
2023-05-21T10:42:31.396Z,9.70
2023-05-21T10:45:51.111Z,9.52
2023-05-21T10:48:51.126Z,8.38
2023-05-21T10:52:08.838Z,8.70
2023-05-21T10:55:13.974Z,8.80
2023-05-21T10:58:30.097Z,7.57
2023-05-21T11:01:19.512Z,8.73
2023-05-21T11:04:06.775Z,7.93
2023-05-21T11:06:53.956Z,7.68
2023-05-21T11:09:40.972Z,7.40
2023-05-21T11:12:27.856Z,7.05
2023-05-21T11:15:16.474Z,7.68
2023-05-21T11:18:03.920Z,6.50
2023-05-21T11:24:02.739Z,6.47
2023-05-21T11:26:52.591Z,6.63
2023-05-21T11:29:41.747Z,6.68
2023-05-21T11:32:29.880Z,6.53
2023-05-21T11:35:16.924Z,5.80
2023-05-21T11:38:03.778Z,6.00
2023-05-21T11:40:55.230Z,6.85
2023-05-21T11:43:44.247Z,6.78
2023-05-21T11:46:31.585Z,7.38
2023-05-21T11:49:18.824Z,7.10
2023-05-21T11:54:57.350Z,6.68
2023-05-21T11:57:48.612Z,7.10
2023-05-21T12:00:42.287Z,6.82
2023-05-21T12:03:30.581Z,5.60
2023-05-21T12:06:18.230Z,5.25
2023-05-21T12:09:05.200Z,4.70
2023-05-21T12:14:39.141Z,4.70
2023-05-21T12:17:26.832Z,4.45
2023-05-21T12:20:16.594Z,4.85
2023-05-21T12:23:03.524Z,5.15
2023-05-21T12:28:38.068Z,5.07
2023-05-21T12:34:15.591Z,5.20
2023-05-21T12:37:02.510Z,5.30
2023-05-21T12:39:51.599Z,5.68
2023-05-21T12:42:40.188Z,5.43
2023-05-21T12:45:27.152Z,5.97
2023-05-21T12:48:14.056Z,5.30
2023-05-21T12:51:00.850Z,5.93
2023-05-21T12:53:48.097Z,8.10
2023-05-21T12:56:45.332Z,7.47
2023-05-21T12:59:50.034Z,6.75
2023-05-21T13:02:44.385Z,6.30
2023-05-21T13:05:32.045Z,6.30
2023-05-21T13:08:18.880Z,7.00
2023-05-21T13:11:05.903Z,6.65
2023-05-21T13:13:52.727Z,7.20
2023-05-21T13:16:39.594Z,7.72
2023-05-21T13:19:26.974Z,7.85
2023-05-21T13:22:14.019Z,7.45
2023-05-21T13:25:01.380Z,7.82
2023-05-21T13:30:37.054Z,8.70
2023-05-21T13:33:24.498Z,7.70
2023-05-21T13:38:58.425Z,7.38
2023-05-21T13:41:45.554Z,7.20
2023-05-21T13:44:36.721Z,8.00
2023-05-21T13:47:23.952Z,6.65
2023-05-21T13:50:11.237Z,6.43
2023-05-21T13:52:58.126Z,6.03
2023-05-21T13:55:44.968Z,5.47
2023-05-21T13:58:34.860Z,5.78
2023-05-21T14:01:21.845Z,5.90
2023-05-21T14:04:08.724Z,5.93
2023-05-21T14:06:55.689Z,5.50
2023-05-21T14:09:42.652Z,4.93
2023-05-21T14:12:29.589Z,5.18
2023-05-21T14:15:17.269Z,5.22
2023-05-21T14:18:07.950Z,4.90
2023-05-21T14:20:54.891Z,4.50
2023-05-21T14:23:41.891Z,3.53
2023-05-21T14:26:29.397Z,3.50
2023-05-21T14:32:03.258Z,4.45
2023-05-21T14:34:50.369Z,3.80
2023-05-21T14:37:37.306Z,3.60
2023-05-21T14:40:24.235Z,4.32
2023-05-21T14:43:11.190Z,3.45
2023-05-21T14:45:58.163Z,6.05
2023-05-21T14:48:46.821Z,4.15
2023-05-21T14:51:33.716Z,4.45
2023-05-21T14:54:20.572Z,4.55
2023-05-21T14:57:07.507Z,4.50
2023-05-21T14:59:54.374Z,6.03
2023-05-21T15:02:41.533Z,6.45
2023-05-21T15:05:29.416Z,6.82
2023-05-21T15:08:16.301Z,7.35
2023-05-21T15:11:03.276Z,7.38
2023-05-21T15:13:50.323Z,7.70
2023-05-21T15:16:37.177Z,6.32
2023-05-21T15:19:24.186Z,6.55
2023-05-21T15:22:11.130Z,6.18
2023-05-21T15:24:58.036Z,6.95
2023-05-21T15:27:45.192Z,6.50
2023-05-21T15:30:32.118Z,8.30
2023-05-21T15:33:19.041Z,7.38
2023-05-21T15:36:06.289Z,6.50
2023-05-21T15:38:53.236Z,6.30
2023-05-21T15:41:40.554Z,6.43
2023-05-21T15:44:27.471Z,6.93
2023-05-21T15:47:14.365Z,8.05
2023-05-21T15:50:01.409Z,6.93
2023-05-21T15:52:48.726Z,6.57
2023-05-21T15:55:36.864Z,6.53
2023-05-21T15:58:23.926Z,5.53
2023-05-21T16:01:10.922Z,6.10
2023-05-21T16:03:57.878Z,6.47
2023-05-21T16:06:44.804Z,7.35
2023-05-21T16:09:34.752Z,6.50
2023-05-21T16:12:21.707Z,7.00
2023-05-21T16:15:09.088Z,8.10
2023-05-21T16:17:56.041Z,7.55
2023-05-21T16:20:43.026Z,7.20
2023-05-21T16:23:29.947Z,6.10
2023-05-21T16:26:16.907Z,6.32
2023-05-21T16:29:03.957Z,6.68
2023-05-21T16:31:50.893Z,6.97
2023-05-21T16:34:37.794Z,6.20
2023-05-21T16:37:24.672Z,6.63
2023-05-21T16:40:12.135Z,7.03
2023-05-21T16:43:01.856Z,6.20
2023-05-21T16:45:49.227Z,7.05
2023-05-21T16:48:38.237Z,6.20
2023-05-21T16:51:25.215Z,5.93
2023-05-21T16:54:12.176Z,6.32
2023-05-21T16:56:59.036Z,5.80
2023-05-21T16:59:45.901Z,5.85
2023-05-21T17:02:32.977Z,6.38
2023-05-21T17:05:20.436Z,6.40
2023-05-21T17:08:08.629Z,5.65
2023-05-21T17:10:56.076Z,7.05
2023-05-21T17:13:43.003Z,6.53
2023-05-21T17:16:29.868Z,6.20
2023-05-21T17:19:16.869Z,7.32
2023-05-21T17:22:03.881Z,6.28
2023-05-21T17:24:50.732Z,7.85
2023-05-21T17:27:37.846Z,6.32
2023-05-21T17:30:24.754Z,6.45
2023-05-21T17:33:12.279Z,6.30
2023-05-21T17:38:46.110Z,6.40
2023-05-21T17:41:33.068Z,6.70
2023-05-21T17:44:20.158Z,6.93
2023-05-21T17:47:07.338Z,7.00
2023-05-21T17:49:54.239Z,8.50
2023-05-21T17:52:41.460Z,7.20
2023-05-21T17:55:28.381Z,6.75
2023-05-21T17:58:15.764Z,7.28
2023-05-21T18:01:02.844Z,7.20
2023-05-21T18:03:49.863Z,7.00
2023-05-21T18:06:36.850Z,7.05
2023-05-21T18:09:23.999Z,7.57
2023-05-21T18:12:11.213Z,9.30
2023-05-21T18:14:58.106Z,8.18
2023-05-21T18:17:45.054Z,8.27
2023-05-21T18:20:31.902Z,7.50
2023-05-21T18:23:18.875Z,7.38
2023-05-21T18:26:06.027Z,7.78
2023-05-21T18:28:53.087Z,7.90
2023-05-21T18:31:40.079Z,9.38
2023-05-21T18:34:26.966Z,9.93
2023-05-21T18:37:14.188Z,9.77
2023-05-21T18:40:01.375Z,9.13
2023-05-21T18:42:48.284Z,9.15
2023-05-21T18:45:38.275Z,11.70
2023-05-21T18:48:26.260Z,9.23
2023-05-21T18:51:13.455Z,35.35
2023-05-21T18:54:00.354Z,33.95
2023-05-21T18:56:47.239Z,31.42
2023-05-21T18:59:34.149Z,28.85
2023-05-21T19:02:21.213Z,23.70
2023-05-21T19:05:08.771Z,14.73
2023-05-21T19:07:57.891Z,11.80
2023-05-21T19:10:46.101Z,9.77
2023-05-21T19:13:35.240Z,9.07
2023-05-21T19:16:22.292Z,8.68
2023-05-21T19:19:11.241Z,10.48
2023-05-21T19:21:58.497Z,10.88
2023-05-21T19:24:46.995Z,10.30
2023-05-21T19:27:33.984Z,9.43
2023-05-21T19:30:20.865Z,9.85
2023-05-21T19:33:07.834Z,10.33
2023-05-21T19:35:54.745Z,9.30
2023-05-21T19:38:48.848Z,10.73
2023-05-21T19:41:35.696Z,9.60
2023-05-21T19:44:25.150Z,12.53
2023-05-21T19:47:12.202Z,9.50
2023-05-21T19:50:02.753Z,9.32
2023-05-21T19:52:49.657Z,10.70
2023-05-21T19:55:37.698Z,9.47
2023-05-21T19:58:26.962Z,10.02
2023-05-21T20:01:17.897Z,9.80
2023-05-21T20:04:05.506Z,9.23
2023-05-21T20:06:52.368Z,11.48
2023-05-21T20:09:39.503Z,9.90
2023-05-21T20:12:26.429Z,8.98
2023-05-21T20:15:13.972Z,9.07
2023-05-21T20:18:01.108Z,9.27
2023-05-21T20:20:48.186Z,9.95
2023-05-21T20:23:35.052Z,10.50
2023-05-21T20:26:23.173Z,9.47
2023-05-21T20:29:10.100Z,9.07
2023-05-21T20:31:57.062Z,11.17
2023-05-21T20:35:01.559Z,10.88
2023-05-21T20:37:49.572Z,9.07
2023-05-21T20:40:36.608Z,10.13
2023-05-21T20:43:24.487Z,9.57
2023-05-21T20:46:11.603Z,9.35
2023-05-21T20:49:00.086Z,9.90
2023-05-21T20:51:47.024Z,9.23
2023-05-21T20:54:33.931Z,9.73
2023-05-21T20:57:24.012Z,11.25
2023-05-21T21:00:12.051Z,13.63
2023-05-21T21:03:01.223Z,10.27
2023-05-21T21:05:48.427Z,10.05
2023-05-21T21:08:35.332Z,9.95
2023-05-21T21:11:22.404Z,10.87
2023-05-21T21:14:09.480Z,9.75
2023-05-21T21:16:56.349Z,9.98
2023-05-21T21:19:43.265Z,9.43
2023-05-21T21:22:31.011Z,9.35
2023-05-21T21:28:04.963Z,9.75
2023-05-21T21:30:51.851Z,9.18
2023-05-21T21:33:38.855Z,11.23
2023-05-21T21:36:25.824Z,11.13
2023-05-21T21:39:12.734Z,9.32
2023-05-21T21:41:59.767Z,10.80
2023-05-21T21:44:49.660Z,9.55
2023-05-21T21:47:36.730Z,8.85
2023-05-21T21:50:23.853Z,8.88
2023-05-21T21:53:12.683Z,9.52
2023-05-21T21:55:59.513Z,8.95
2023-05-21T21:58:46.483Z,10.57
2023-05-21T22:01:33.783Z,9.50
2023-05-21T22:04:20.901Z,8.77
2023-05-21T22:07:13.729Z,12.13
2023-05-21T22:10:01.261Z,8.70
2023-05-21T22:12:48.283Z,8.98
2023-05-21T22:15:35.412Z,10.38
2023-05-21T22:18:38.877Z,9.63
2023-05-21T22:21:29.395Z,8.43
2023-05-21T22:24:30.954Z,9.60
2023-05-21T22:27:18.805Z,8.52
2023-05-21T22:30:06.486Z,9.35
2023-05-21T22:35:40.446Z,10.48
2023-05-21T22:38:29.992Z,7.82
2023-05-21T22:41:16.954Z,8.43
2023-05-21T22:44:04.016Z,9.52
2023-05-21T22:46:52.187Z,8.30
2023-05-21T22:49:40.671Z,8.52
2023-05-21T22:52:28.833Z,9.60
2023-05-21T22:55:16.478Z,10.93
2023-05-21T22:58:03.369Z,7.85
2023-05-21T23:00:50.424Z,9.03
2023-05-21T23:03:40.933Z,8.63
2023-05-21T23:06:28.006Z,8.68
2023-05-21T23:09:15.001Z,8.15
2023-05-21T23:12:02.070Z,8.52
2023-05-21T23:14:49.029Z,8.10
2023-05-21T23:17:36.208Z,8.50
2023-05-21T23:20:24.582Z,8.85
2023-05-21T23:23:11.526Z,8.45
2023-05-21T23:25:59.103Z,8.65
2023-05-21T23:28:46.043Z,8.50
2023-05-21T23:31:33.046Z,8.30
2023-05-21T23:34:19.952Z,8.93
2023-05-21T23:37:06.815Z,9.07
2023-05-21T23:39:53.771Z,8.97
2023-05-21T23:42:41.469Z,8.80
2023-05-21T23:48:15.234Z,9.45
2023-05-21T23:51:02.263Z,9.10
2023-05-21T23:53:49.142Z,9.55
2023-05-21T23:56:36.006Z,7.83
2023-05-21T23:59:22.870Z,8.53
